createdAt,value
2022-08-11T00:02:35.678Z,2.78
2022-08-11T00:05:07.995Z,2.75
2022-08-11T00:07:43.323Z,2.75
2022-08-11T00:10:13.860Z,2.70
2022-08-11T00:12:45.034Z,3.10
2022-08-11T00:15:13.879Z,2.90
2022-08-11T00:17:42.591Z,2.90
2022-08-11T00:20:16.674Z,2.80
2022-08-11T00:22:47.986Z,2.50
2022-08-11T00:25:18.853Z,3.08
2022-08-11T00:27:49.236Z,2.90
2022-08-11T00:30:17.702Z,2.70
2022-08-11T00:32:53.323Z,2.90
2022-08-11T00:35:50.908Z,2.90
2022-08-11T00:38:15.802Z,2.92
2022-08-11T00:40:52.843Z,2.88
2022-08-11T00:43:32.672Z,3.13
2022-08-11T00:46:13.021Z,3.20
2022-08-11T00:48:51.259Z,3.20
2022-08-11T00:51:27.694Z,3.15
2022-08-11T00:54:47.200Z,3.10
2022-08-11T00:57:38.601Z,3.07
2022-08-11T01:00:16.782Z,3.08
2022-08-11T01:03:18.353Z,3.15
2022-08-11T01:06:01.265Z,3.10
2022-08-11T01:09:21.947Z,2.85
2022-08-11T01:12:15.284Z,3.08
2022-08-11T01:15:29.671Z,3.15
2022-08-11T01:18:36.694Z,3.08
2022-08-11T01:21:40.143Z,3.30
2022-08-11T01:24:48.743Z,3.40
2022-08-11T01:27:57.411Z,3.20
2022-08-11T01:30:55.631Z,3.17
2022-08-11T01:34:03.327Z,3.08
2022-08-11T01:36:56.554Z,3.22
2022-08-11T01:40:01.031Z,3.33
2022-08-11T01:43:17.764Z,3.40
2022-08-11T01:45:49.809Z,3.75
2022-08-11T01:48:29.898Z,3.13
2022-08-11T01:51:17.487Z,3.15
2022-08-11T01:53:57.152Z,3.10
2022-08-11T01:56:35.178Z,3.22
2022-08-11T01:59:15.068Z,3.30
2022-08-11T02:02:02.103Z,3.22
2022-08-11T02:04:35.799Z,3.25
2022-08-11T02:07:11.982Z,2.90
2022-08-11T02:09:56.666Z,3.42
2022-08-11T02:12:49.915Z,3.58
2022-08-11T02:15:27.877Z,3.70
2022-08-11T02:18:06.755Z,3.10
2022-08-11T02:21:00.526Z,3.60
2022-08-11T02:24:05.292Z,3.30
2022-08-11T02:26:41.361Z,3.50
2022-08-11T02:29:17.800Z,3.60
2022-08-11T02:32:28.740Z,3.70
2022-08-11T02:35:05.937Z,3.60
2022-08-11T02:37:55.338Z,3.40
2022-08-11T02:40:35.397Z,4.07
2022-08-11T02:43:15.059Z,3.50
2022-08-11T02:46:03.247Z,3.72
2022-08-11T02:49:08.895Z,3.75
2022-08-11T02:51:43.282Z,3.83
2022-08-11T02:54:22.254Z,3.80
2022-08-11T02:56:57.990Z,4.18
2022-08-11T02:59:51.232Z,4.22
2022-08-11T03:02:41.078Z,4.00
2022-08-11T03:05:22.415Z,4.28
2022-08-11T03:08:09.224Z,3.70
2022-08-11T03:11:06.976Z,3.90
2022-08-11T03:13:58.869Z,3.80
2022-08-11T03:16:48.274Z,4.05
2022-08-11T03:19:26.419Z,3.63
2022-08-11T03:22:06.459Z,4.00
2022-08-11T03:24:53.162Z,3.92
2022-08-11T03:27:47.302Z,4.15
2022-08-11T03:30:18.803Z,3.92
2022-08-11T03:33:41.560Z,4.32
2022-08-11T03:36:22.938Z,4.00
2022-08-11T03:39:06.919Z,4.10
2022-08-11T03:42:01.301Z,4.47
2022-08-11T03:44:48.783Z,3.95
2022-08-11T03:47:35.027Z,4.40
2022-08-11T03:50:17.312Z,4.20
2022-08-11T03:53:03.524Z,4.15
2022-08-11T03:56:06.164Z,4.50
2022-08-11T03:59:02.047Z,4.47
2022-08-11T04:02:21.103Z,4.22
2022-08-11T04:05:17.698Z,4.13
2022-08-11T04:08:16.353Z,4.18
2022-08-11T04:11:21.661Z,4.60
2022-08-11T04:15:01.278Z,3.95
2022-08-11T04:17:58.946Z,4.38
2022-08-11T04:21:08.057Z,4.53
2022-08-11T04:24:37.229Z,4.32
2022-08-11T04:27:14.243Z,4.57
2022-08-11T04:30:05.367Z,4.80
2022-08-11T04:33:18.340Z,4.40
2022-08-11T04:35:54.884Z,4.85
2022-08-11T04:38:47.343Z,4.30
2022-08-11T04:42:16.023Z,4.38
2022-08-11T04:45:16.828Z,4.30
2022-08-11T04:48:24.137Z,4.55
2022-08-11T04:51:25.701Z,4.50
2022-08-11T04:54:28.253Z,4.60
2022-08-11T04:57:21.232Z,4.63
2022-08-11T05:00:23.242Z,5.07
2022-08-11T05:03:31.139Z,4.50
2022-08-11T05:06:40.605Z,4.50
2022-08-11T05:09:29.482Z,4.80
2022-08-11T05:12:30.030Z,4.97
2022-08-11T05:15:17.831Z,4.73
2022-08-11T05:18:11.164Z,5.03
2022-08-11T05:21:07.234Z,5.00
2022-08-11T05:23:58.946Z,4.60
2022-08-11T05:26:49.829Z,4.80
2022-08-11T05:29:53.845Z,4.82
2022-08-11T05:32:40.379Z,4.70
2022-08-11T05:35:09.438Z,4.82
2022-08-11T05:37:58.070Z,4.70
2022-08-11T05:40:51.255Z,4.47
2022-08-11T05:44:20.126Z,4.55
2022-08-11T05:46:48.430Z,4.03
2022-08-11T05:49:34.331Z,4.50
2022-08-11T05:52:31.699Z,4.35
2022-08-11T05:55:22.000Z,4.57
2022-08-11T05:57:51.849Z,4.68
2022-08-11T06:00:24.159Z,4.35
2022-08-11T06:02:55.120Z,4.32
2022-08-11T06:05:25.041Z,4.40
2022-08-11T06:07:57.292Z,4.55
2022-08-11T06:10:33.131Z,4.53
2022-08-11T06:13:01.994Z,4.32
2022-08-11T06:15:34.002Z,4.63
2022-08-11T06:18:03.736Z,4.53
2022-08-11T06:20:37.395Z,4.88
2022-08-11T06:23:08.615Z,4.67
2022-08-11T06:25:38.047Z,4.50
2022-08-11T06:28:09.035Z,4.20
2022-08-11T06:30:40.980Z,4.38
2022-08-11T06:33:11.758Z,4.53
2022-08-11T06:35:57.028Z,4.47
2022-08-11T06:38:49.632Z,4.45
2022-08-11T06:41:31.931Z,4.25
2022-08-11T06:44:10.304Z,4.60
2022-08-11T06:46:42.874Z,4.70
2022-08-11T06:49:26.697Z,4.53
2022-08-11T06:51:56.715Z,5.05
2022-08-11T06:54:31.862Z,4.10
2022-08-11T06:57:33.413Z,4.60
2022-08-11T07:00:28.910Z,4.55
2022-08-11T07:03:04.249Z,4.63
2022-08-11T07:05:43.755Z,4.65
2022-08-11T07:09:04.647Z,4.55
2022-08-11T07:12:24.740Z,4.55
2022-08-11T07:15:11.745Z,4.57
2022-08-11T07:17:49.821Z,4.20
2022-08-11T07:20:37.110Z,4.28
2022-08-11T07:23:26.078Z,4.55
2022-08-11T07:26:13.038Z,4.28
2022-08-11T07:28:58.513Z,4.35
2022-08-11T07:31:32.748Z,3.87
2022-08-11T07:34:18.528Z,4.18
2022-08-11T07:36:52.278Z,3.78
2022-08-11T07:39:22.948Z,4.00
2022-08-11T07:41:52.799Z,4.00
2022-08-11T07:44:21.867Z,3.75
2022-08-11T07:47:09.206Z,3.70
2022-08-11T07:49:56.944Z,3.90
2022-08-11T07:52:34.017Z,3.80
2022-08-11T07:55:04.191Z,4.20
2022-08-11T07:58:15.586Z,3.70
2022-08-11T08:01:01.082Z,4.07
2022-08-11T08:03:54.478Z,3.80
2022-08-11T08:06:41.275Z,3.63
2022-08-11T08:09:29.235Z,3.90
2022-08-11T08:12:15.422Z,3.80
2022-08-11T08:15:01.234Z,4.10
2022-08-11T08:18:20.694Z,3.95
2022-08-11T08:20:39.096Z,3.60
2022-08-11T08:23:07.362Z,3.80
2022-08-11T08:25:39.183Z,3.80
2022-08-11T08:28:10.067Z,3.90
2022-08-11T08:30:47.380Z,3.70
2022-08-11T08:33:18.123Z,3.50
2022-08-11T08:35:54.028Z,3.58
2022-08-11T08:38:23.435Z,3.35
2022-08-11T08:40:56.473Z,3.22
2022-08-11T08:43:25.688Z,3.80
2022-08-11T08:45:57.479Z,3.88
2022-08-11T08:48:28.666Z,3.78
2022-08-11T08:51:21.917Z,3.80
2022-08-11T08:53:56.108Z,3.60
2022-08-11T08:56:30.107Z,3.60
2022-08-11T08:59:00.648Z,3.58
2022-08-11T09:01:31.473Z,3.53
2022-08-11T09:04:04.766Z,3.60
2022-08-11T09:06:39.704Z,3.53
2022-08-11T09:09:09.189Z,3.55
2022-08-11T09:11:53.392Z,3.33
2022-08-11T09:14:23.266Z,3.63
2022-08-11T09:16:53.416Z,3.70
2022-08-11T09:19:22.525Z,3.38
2022-08-11T09:22:13.259Z,3.50
2022-08-11T09:24:59.950Z,3.50
2022-08-11T09:27:29.559Z,3.70
2022-08-11T09:29:57.894Z,3.60
2022-08-11T09:32:26.519Z,3.50
2022-08-11T09:34:55.610Z,3.35
2022-08-11T09:37:55.294Z,3.40
2022-08-11T09:40:32.391Z,3.42
2022-08-11T09:43:23.687Z,3.20
2022-08-11T09:45:54.128Z,3.70
2022-08-11T09:48:23.943Z,3.45
2022-08-11T09:50:53.095Z,3.23
2022-08-11T09:53:37.332Z,3.00
2022-08-11T09:56:30.326Z,3.03
2022-08-11T09:59:00.755Z,3.00
2022-08-11T10:01:32.928Z,2.92
2022-08-11T10:04:04.837Z,3.05
2022-08-11T10:07:05.206Z,2.90
2022-08-11T10:09:39.786Z,2.92
2022-08-11T10:12:11.643Z,2.63
2022-08-11T10:15:03.725Z,2.90
2022-08-11T10:17:34.828Z,2.90
2022-08-11T10:20:05.872Z,2.85
2022-08-11T10:22:53.412Z,2.90
2022-08-11T10:25:54.338Z,2.50
2022-08-11T10:28:33.454Z,2.55
2022-08-11T10:31:31.907Z,2.65
2022-08-11T10:34:16.498Z,3.03
2022-08-11T10:36:48.158Z,2.63
2022-08-11T10:39:19.373Z,2.63
2022-08-11T10:42:12.244Z,2.45
2022-08-11T10:44:45.245Z,2.70
2022-08-11T10:47:36.659Z,2.50
2022-08-11T10:50:26.826Z,2.50
2022-08-11T10:53:13.451Z,2.50
2022-08-11T10:56:02.452Z,2.40
2022-08-11T10:58:49.722Z,2.70
2022-08-11T11:01:23.540Z,2.83
2022-08-11T11:03:55.906Z,2.50
2022-08-11T11:06:29.872Z,2.60
2022-08-11T11:09:04.385Z,2.65
2022-08-11T11:11:55.588Z,2.38
2022-08-11T11:14:45.855Z,2.53
2022-08-11T11:17:33.671Z,2.50
2022-08-11T11:20:07.782Z,2.65
2022-08-11T11:22:38.978Z,2.80
2022-08-11T11:25:21.177Z,2.63
2022-08-11T11:28:04.896Z,2.55
2022-08-11T11:30:38.784Z,2.38
2022-08-11T11:33:14.266Z,2.75
2022-08-11T11:35:54.078Z,2.47
2022-08-11T11:38:22.476Z,2.40
2022-08-11T11:41:11.223Z,2.42
2022-08-11T11:43:39.382Z,2.50
2022-08-11T11:46:10.550Z,2.72
2022-08-11T11:48:39.440Z,2.40
2022-08-11T11:51:09.915Z,2.30
2022-08-11T11:53:37.837Z,2.78
2022-08-11T11:56:06.810Z,2.33
2022-08-11T11:58:52.290Z,2.33
2022-08-11T12:01:24.178Z,2.30
2022-08-11T12:03:54.297Z,2.22
2022-08-11T12:06:25.249Z,2.58
2022-08-11T12:08:55.368Z,2.70
2022-08-11T12:11:43.695Z,2.88
2022-08-11T12:14:12.569Z,2.63
2022-08-11T12:16:44.487Z,2.70
2022-08-11T12:19:15.222Z,2.42
2022-08-11T12:22:00.943Z,2.38
2022-08-11T12:24:47.903Z,2.33
2022-08-11T12:27:25.085Z,2.92
2022-08-11T12:29:56.943Z,2.25
2022-08-11T12:32:27.161Z,2.17
2022-08-11T12:34:57.619Z,2.25
2022-08-11T12:37:31.788Z,2.37
2022-08-11T12:40:49.774Z,2.33
2022-08-11T12:43:38.312Z,2.00
2022-08-11T12:46:09.498Z,2.30
2022-08-11T12:49:02.353Z,2.30
2022-08-11T12:52:11.927Z,2.20
2022-08-11T12:54:51.790Z,2.38
2022-08-11T12:57:45.207Z,2.40
2022-08-11T13:00:32.571Z,2.40
2022-08-11T13:03:18.489Z,2.27
2022-08-11T13:05:50.403Z,2.30
2022-08-11T13:08:19.012Z,2.00
2022-08-11T13:11:08.716Z,2.00
2022-08-11T13:13:54.031Z,2.30
2022-08-11T13:16:27.212Z,2.20
2022-08-11T13:18:55.468Z,2.25
2022-08-11T13:21:24.171Z,2.10
2022-08-11T13:24:01.784Z,1.98
2022-08-11T13:26:47.050Z,2.35
2022-08-11T13:29:22.466Z,2.08
2022-08-11T13:31:52.347Z,2.30
2022-08-11T13:34:22.297Z,2.10
2022-08-11T13:36:53.039Z,2.40
2022-08-11T13:39:24.149Z,2.08
2022-08-11T13:41:56.313Z,2.10
2022-08-11T13:44:28.050Z,2.08
2022-08-11T13:46:59.327Z,1.98
2022-08-11T13:49:27.974Z,2.03
2022-08-11T13:51:57.058Z,2.05
2022-08-11T13:54:27.725Z,2.13
2022-08-11T13:57:01.323Z,2.20
2022-08-11T13:59:31.415Z,2.03
2022-08-11T14:02:28.345Z,1.95
2022-08-11T14:04:55.797Z,2.00
2022-08-11T14:07:26.725Z,1.90
2022-08-11T14:09:59.233Z,1.90
2022-08-11T14:12:49.820Z,2.08
2022-08-11T14:15:22.647Z,1.90
2022-08-11T14:17:57.220Z,1.90
2022-08-11T14:20:45.703Z,2.00
2022-08-11T14:23:14.932Z,1.90
2022-08-11T14:26:03.699Z,2.10
2022-08-11T14:28:41.533Z,2.20
2022-08-11T14:31:12.938Z,2.00
2022-08-11T14:34:00.441Z,2.33
2022-08-11T14:36:32.550Z,2.05
2022-08-11T14:39:02.217Z,2.20
2022-08-11T14:42:11.802Z,2.30
2022-08-11T14:44:56.220Z,1.90
2022-08-11T14:47:25.898Z,2.00
2022-08-11T14:49:58.410Z,1.92
2022-08-11T14:52:38.865Z,2.30
2022-08-11T14:55:26.053Z,2.10
2022-08-11T14:57:56.687Z,2.08
2022-08-11T15:00:27.316Z,2.22
2022-08-11T15:03:13.867Z,2.00
2022-08-11T15:05:56.070Z,1.90
2022-08-11T15:08:48.202Z,1.88
2022-08-11T15:11:35.907Z,2.13
2022-08-11T15:14:06.064Z,1.83
2022-08-11T15:16:54.829Z,2.10
2022-08-11T15:19:23.342Z,1.93
2022-08-11T15:22:09.365Z,1.90
2022-08-11T15:24:37.702Z,2.33
2022-08-11T15:27:28.105Z,2.20
2022-08-11T15:30:20.880Z,1.98
2022-08-11T15:33:24.818Z,1.90
2022-08-11T15:36:11.645Z,1.90
2022-08-11T15:38:43.838Z,2.03
2022-08-11T15:41:33.898Z,1.70
2022-08-11T15:44:38.765Z,2.00
2022-08-11T15:47:14.220Z,1.80
2022-08-11T15:50:10.953Z,2.72
2022-08-11T15:52:49.249Z,2.20
2022-08-11T15:55:18.471Z,2.15
2022-08-11T15:58:07.740Z,2.22
2022-08-11T16:00:59.114Z,1.97
2022-08-11T16:04:07.474Z,1.95
2022-08-11T16:06:40.410Z,2.00
2022-08-11T16:09:18.464Z,2.13
2022-08-11T16:11:49.161Z,1.67
2022-08-11T16:14:36.173Z,2.10
2022-08-11T16:17:07.130Z,1.90
2022-08-11T16:19:37.356Z,1.90
2022-08-11T16:22:11.214Z,2.30
2022-08-11T16:27:06.206Z,2.00
2022-08-11T16:27:35.667Z,1.67
2022-08-11T16:30:05.925Z,2.28
2022-08-11T16:32:35.778Z,1.92
2022-08-11T16:35:24.506Z,1.98
2022-08-11T16:38:13.674Z,1.90
2022-08-11T16:40:44.291Z,2.15
2022-08-11T16:43:33.118Z,1.90
2022-08-11T16:46:21.803Z,1.98
2022-08-11T16:48:53.411Z,1.98
2022-08-11T16:51:22.170Z,2.42
2022-08-11T16:54:05.170Z,2.03
2022-08-11T16:56:37.352Z,2.00
2022-08-11T16:59:16.554Z,2.13
2022-08-11T17:01:50.110Z,1.90
2022-08-11T17:04:43.044Z,2.03
2022-08-11T17:07:42.511Z,1.90
2022-08-11T17:10:51.257Z,2.00
2022-08-11T17:13:29.981Z,1.97
2022-08-11T17:16:08.462Z,2.10
2022-08-11T17:18:42.984Z,2.30
2022-08-11T17:21:17.043Z,3.00
2022-08-11T17:23:50.036Z,4.13
2022-08-11T17:26:23.796Z,2.30
2022-08-11T17:28:56.288Z,2.70
2022-08-11T17:31:43.147Z,1.88
2022-08-11T17:34:29.582Z,1.90
2022-08-11T17:36:59.948Z,2.03
2022-08-11T17:39:31.658Z,1.90
2022-08-11T17:42:20.391Z,2.08
2022-08-11T17:45:07.743Z,2.17
2022-08-11T17:47:54.010Z,1.85
2022-08-11T17:50:23.124Z,1.70
2022-08-11T17:53:09.626Z,1.77
2022-08-11T17:55:57.638Z,2.80
2022-08-11T17:58:45.985Z,1.92
2022-08-11T18:01:16.233Z,1.93
2022-08-11T18:03:56.347Z,4.78
2022-08-11T18:06:33.964Z,1.90
2022-08-11T18:09:22.204Z,1.90
2022-08-11T18:12:11.627Z,1.90
2022-08-11T18:15:01.919Z,1.80
2022-08-11T18:17:47.465Z,1.73
2022-08-11T18:20:32.959Z,3.17
2022-08-11T18:23:21.805Z,2.80
2022-08-11T18:26:28.998Z,2.13
2022-08-11T18:29:16.003Z,2.38
2022-08-11T18:32:08.497Z,1.83
2022-08-11T18:34:59.695Z,2.15
2022-08-11T18:37:51.236Z,1.70
2022-08-11T18:40:40.651Z,2.05
2022-08-11T18:43:30.165Z,1.92
2022-08-11T18:46:20.990Z,1.80
2022-08-11T18:49:15.562Z,1.92
2022-08-11T18:52:05.802Z,2.60
2022-08-11T18:54:53.474Z,2.25
2022-08-11T18:57:49.418Z,3.00
2022-08-11T19:00:40.708Z,2.50
2022-08-11T19:03:28.489Z,2.25
2022-08-11T19:06:38.529Z,1.67
2022-08-11T19:09:26.900Z,1.70
2022-08-11T19:12:13.612Z,3.00
2022-08-11T19:15:00.472Z,3.60
2022-08-11T19:17:48.418Z,2.50
2022-08-11T19:20:36.486Z,2.30
2022-08-11T19:23:25.322Z,2.58
2022-08-11T19:26:11.583Z,2.60
2022-08-11T19:29:00.491Z,2.27
2022-08-11T19:31:46.484Z,2.20
2022-08-11T19:34:33.368Z,2.30
2022-08-11T19:37:24.084Z,2.17
2022-08-11T19:40:12.498Z,2.20
2022-08-11T19:42:59.949Z,2.33
2022-08-11T19:45:45.843Z,2.03
2022-08-11T19:48:39.947Z,2.03
2022-08-11T19:51:27.284Z,2.10
2022-08-11T19:54:13.410Z,2.17
2022-08-11T19:57:01.181Z,2.03
2022-08-11T19:59:47.441Z,2.25
2022-08-11T20:02:33.500Z,2.10
2022-08-11T20:05:19.787Z,2.23
2022-08-11T20:08:06.904Z,2.05
2022-08-11T20:10:54.555Z,2.22
2022-08-11T20:13:44.750Z,2.67
2022-08-11T20:16:32.782Z,2.00
2022-08-11T20:19:25.932Z,2.20
2022-08-11T20:22:26.695Z,2.25
2022-08-11T20:25:13.846Z,2.45
2022-08-11T20:28:01.955Z,2.40
2022-08-11T20:30:51.935Z,2.05
2022-08-11T20:33:40.185Z,2.03
2022-08-11T20:36:27.019Z,2.20
2022-08-11T20:39:13.759Z,2.37
2022-08-11T20:41:59.968Z,2.05
2022-08-11T20:44:46.923Z,2.00
2022-08-11T20:47:56.539Z,2.30
2022-08-11T20:53:50.899Z,2.17
2022-08-11T20:56:38.215Z,2.38
2022-08-11T20:59:26.579Z,2.50
2022-08-11T21:02:14.009Z,2.20
2022-08-11T21:05:01.015Z,1.92
2022-08-11T21:07:55.587Z,2.20
2022-08-11T21:10:47.129Z,2.30
2022-08-11T21:13:38.080Z,2.40
2022-08-11T21:16:27.230Z,2.35
2022-08-11T21:19:54.598Z,2.42
2022-08-11T21:22:28.500Z,2.22
2022-08-11T21:25:16.472Z,2.20
2022-08-11T21:28:04.702Z,2.47
2022-08-11T21:30:52.012Z,2.60
2022-08-11T21:33:45.934Z,2.20
2022-08-11T21:36:33.442Z,2.23
2022-08-11T21:39:24.929Z,1.90
2022-08-11T21:42:12.157Z,2.28
2022-08-11T21:44:59.940Z,2.20
2022-08-11T21:47:46.516Z,2.10
2022-08-11T21:50:31.997Z,2.10
2022-08-11T21:53:18.377Z,2.20
2022-08-11T21:56:05.080Z,2.20
2022-08-11T21:58:52.729Z,2.20
2022-08-11T22:01:39.050Z,2.20
2022-08-11T22:04:25.011Z,2.10
2022-08-11T22:07:10.743Z,2.25
2022-08-11T22:09:56.598Z,2.10
2022-08-11T22:12:45.280Z,2.35
2022-08-11T22:15:31.287Z,2.20
2022-08-11T22:18:16.679Z,2.33
2022-08-11T22:21:03.093Z,2.10
2022-08-11T22:23:51.305Z,2.30
2022-08-11T22:26:39.606Z,2.30
2022-08-11T22:29:50.338Z,2.42
2022-08-11T22:32:35.962Z,2.20
2022-08-11T22:35:22.331Z,2.13
2022-08-11T22:38:08.668Z,2.47
2022-08-11T22:40:55.134Z,2.22
2022-08-11T22:43:40.638Z,2.30
2022-08-11T22:46:27.216Z,2.15
2022-08-11T22:49:13.631Z,2.33
2022-08-11T22:52:01.623Z,2.55
2022-08-11T22:54:48.294Z,2.38
2022-08-11T22:57:34.179Z,2.22
2022-08-11T23:00:20.217Z,2.78
2022-08-11T23:03:08.322Z,2.50
2022-08-11T23:05:58.915Z,2.55
2022-08-11T23:08:45.023Z,2.47
2022-08-11T23:12:06.402Z,2.33
2022-08-11T23:14:39.798Z,2.58
2022-08-11T23:17:27.033Z,2.40
2022-08-11T23:20:26.121Z,2.55
2022-08-11T23:23:20.805Z,2.78
2022-08-11T23:26:09.943Z,2.53
2022-08-11T23:28:56.009Z,2.83
2022-08-11T23:31:51.275Z,2.60
2022-08-11T23:35:03.889Z,2.60
2022-08-11T23:37:46.298Z,2.53
2022-08-11T23:40:31.715Z,2.63
2022-08-11T23:43:17.284Z,2.80
2022-08-11T23:46:02.767Z,2.90
2022-08-11T23:48:49.233Z,3.10
2022-08-11T23:51:40.515Z,2.90
2022-08-11T23:54:30.707Z,2.88
2022-08-11T23:57:18.571Z,3.28
